sensor_id;sensor_type;location;lat;lon;timestamp;temperature;humidity
13684;DHT22;6914;53.552;9.908;2023-04-25T00:01:02;7.50;99.90
13684;DHT22;6914;53.552;9.908;2023-04-25T00:03:30;7.90;99.90
13684;DHT22;6914;53.552;9.908;2023-04-25T00:05:57;7.10;99.90
13684;DHT22;6914;53.552;9.908;2023-04-25T00:08:28;6.90;99.90
13684;DHT22;6914;53.552;9.908;2023-04-25T00:10:55;6.80;99.90
13684;DHT22;6914;53.552;9.908;2023-04-25T00:13:28;7.30;99.90
13684;DHT22;6914;53.552;9.908;2023-04-25T00:15:55;7.60;99.90
13684;DHT22;6914;53.552;9.908;2023-04-25T00:18:28;7.90;99.90
13684;DHT22;6914;53.552;9.908;2023-04-25T00:20:55;9.90;99.90
13684;DHT22;6914;53.552;9.908;2023-04-25T00:23:22;7.10;99.90
13684;DHT22;6914;53.552;9.908;2023-04-25T00:25:50;7.10;99.90
13684;DHT22;6914;53.552;9.908;2023-04-25T00:28:16;7.10;99.90
13684;DHT22;6914;53.552;9.908;2023-04-25T00:30:43;7.10;99.90
13684;DHT22;6914;53.552;9.908;2023-04-25T00:33:10;6.70;99.90
13684;DHT22;6914;53.552;9.908;2023-04-25T00:35:38;6.80;99.90
13684;DHT22;6914;53.552;9.908;2023-04-25T00:38:05;7.60;99.90
13684;DHT22;6914;53.552;9.908;2023-04-25T00:40:32;7.00;99.90
13684;DHT22;6914;53.552;9.908;2023-04-25T00:42:59;7.40;99.90
13684;DHT22;6914;53.552;9.908;2023-04-25T00:45:28;7.00;99.90
13684;DHT22;6914;53.552;9.908;2023-04-25T00:47:56;6.80;99.90
13684;DHT22;6914;53.552;9.908;2023-04-25T00:50:29;7.00;99.90
13684;DHT22;6914;53.552;9.908;2023-04-25T00:52:58;6.90;99.90
13684;DHT22;6914;53.552;9.908;2023-04-25T00:55:25;6.60;99.90
13684;DHT22;6914;53.552;9.908;2023-04-25T00:57:56;6.90;99.90
13684;DHT22;6914;53.552;9.908;2023-04-25T01:00:23;6.70;99.90
13684;DHT22;6914;53.552;9.908;2023-04-25T01:02:51;7.40;99.90
13684;DHT22;6914;53.552;9.908;2023-04-25T01:05:18;6.90;99.90
13684;DHT22;6914;53.552;9.908;2023-04-25T01:07:45;6.90;99.90
13684;DHT22;6914;53.552;9.908;2023-04-25T01:10:14;7.00;99.90
13684;DHT22;6914;53.552;9.908;2023-04-25T01:12:41;6.00;99.90
13684;DHT22;6914;53.552;9.908;2023-04-25T01:15:10;7.40;99.90
13684;DHT22;6914;53.552;9.908;2023-04-25T01:17:37;6.80;99.90
13684;DHT22;6914;53.552;9.908;2023-04-25T01:20:05;6.80;99.90
13684;DHT22;6914;53.552;9.908;2023-04-25T01:22:36;6.80;99.90
13684;DHT22;6914;53.552;9.908;2023-04-25T01:25:04;6.60;99.90
13684;DHT22;6914;53.552;9.908;2023-04-25T01:27:31;6.70;99.90
13684;DHT22;6914;53.552;9.908;2023-04-25T01:29:59;6.70;99.90
13684;DHT22;6914;53.552;9.908;2023-04-25T01:32:30;6.70;99.90
13684;DHT22;6914;53.552;9.908;2023-04-25T01:35:04;6.70;99.90
13684;DHT22;6914;53.552;9.908;2023-04-25T01:37:36;6.70;99.90
13684;DHT22;6914;53.552;9.908;2023-04-25T01:40:04;6.60;99.90
13684;DHT22;6914;53.552;9.908;2023-04-25T01:42:31;6.70;99.90
13684;DHT22;6914;53.552;9.908;2023-04-25T01:44:59;6.30;99.90
13684;DHT22;6914;53.552;9.908;2023-04-25T01:47:26;6.50;99.90
13684;DHT22;6914;53.552;9.908;2023-04-25T01:49:54;6.50;99.90
13684;DHT22;6914;53.552;9.908;2023-04-25T01:52:21;6.70;99.90
13684;DHT22;6914;53.552;9.908;2023-04-25T01:54:50;6.30;99.90
13684;DHT22;6914;53.552;9.908;2023-04-25T01:57:17;6.30;99.90
13684;DHT22;6914;53.552;9.908;2023-04-25T01:59:45;6.50;99.90
13684;DHT22;6914;53.552;9.908;2023-04-25T02:02:12;6.70;99.90
13684;DHT22;6914;53.552;9.908;2023-04-25T02:04:39;6.50;99.90
13684;DHT22;6914;53.552;9.908;2023-04-25T02:07:06;6.50;99.90
13684;DHT22;6914;53.552;9.908;2023-04-25T02:09:33;6.30;99.90
13684;DHT22;6914;53.552;9.908;2023-04-25T02:12:01;6.50;99.90
13684;DHT22;6914;53.552;9.908;2023-04-25T02:14:29;6.30;99.90
13684;DHT22;6914;53.552;9.908;2023-04-25T02:16:56;6.80;99.90
13684;DHT22;6914;53.552;9.908;2023-04-25T02:19:32;6.40;99.90
13684;DHT22;6914;53.552;9.908;2023-04-25T02:21:59;6.40;99.90
13684;DHT22;6914;53.552;9.908;2023-04-25T02:24:26;6.20;99.90
13684;DHT22;6914;53.552;9.908;2023-04-25T02:26:57;6.30;99.90
13684;DHT22;6914;53.552;9.908;2023-04-25T02:29:26;6.30;99.90
13684;DHT22;6914;53.552;9.908;2023-04-25T02:31:56;4.80;99.90
13684;DHT22;6914;53.552;9.908;2023-04-25T02:34:23;6.30;99.90
13684;DHT22;6914;53.552;9.908;2023-04-25T02:36:54;5.70;99.90
13684;DHT22;6914;53.552;9.908;2023-04-25T02:39:21;5.80;99.90
13684;DHT22;6914;53.552;9.908;2023-04-25T02:41:50;6.10;99.90
13684;DHT22;6914;53.552;9.908;2023-04-25T02:44:17;6.10;99.90
13684;DHT22;6914;53.552;9.908;2023-04-25T02:46:45;6.30;99.90
13684;DHT22;6914;53.552;9.908;2023-04-25T02:49:12;6.20;99.90
13684;DHT22;6914;53.552;9.908;2023-04-25T02:51:39;6.30;99.90
13684;DHT22;6914;53.552;9.908;2023-04-25T02:54:06;6.30;99.90
13684;DHT22;6914;53.552;9.908;2023-04-25T02:56:33;6.40;99.90
13684;DHT22;6914;53.552;9.908;2023-04-25T02:59:00;6.10;99.90
13684;DHT22;6914;53.552;9.908;2023-04-25T03:01:30;6.10;99.90
13684;DHT22;6914;53.552;9.908;2023-04-25T03:03:58;5.80;99.90
13684;DHT22;6914;53.552;9.908;2023-04-25T03:06:25;6.30;99.90
13684;DHT22;6914;53.552;9.908;2023-04-25T03:08:52;6.10;99.90
13684;DHT22;6914;53.552;9.908;2023-04-25T03:11:19;6.00;99.90
13684;DHT22;6914;53.552;9.908;2023-04-25T03:13:46;6.00;99.90
13684;DHT22;6914;53.552;9.908;2023-04-25T03:16:13;5.80;99.90
13684;DHT22;6914;53.552;9.908;2023-04-25T03:18:41;4.80;99.90
13684;DHT22;6914;53.552;9.908;2023-04-25T03:21:09;6.20;99.90
13684;DHT22;6914;53.552;9.908;2023-04-25T03:23:35;5.40;99.90
13684;DHT22;6914;53.552;9.908;2023-04-25T03:26:02;5.40;99.90
13684;DHT22;6914;53.552;9.908;2023-04-25T03:28:29;5.60;99.90
13684;DHT22;6914;53.552;9.908;2023-04-25T03:30:56;5.50;99.90
13684;DHT22;6914;53.552;9.908;2023-04-25T03:33:23;5.40;99.90
13684;DHT22;6914;53.552;9.908;2023-04-25T03:35:51;5.30;99.90
13684;DHT22;6914;53.552;9.908;2023-04-25T03:38:19;5.20;99.90
13684;DHT22;6914;53.552;9.908;2023-04-25T03:40:46;5.40;99.90
13684;DHT22;6914;53.552;9.908;2023-04-25T03:43:13;5.70;99.90
13684;DHT22;6914;53.552;9.908;2023-04-25T03:45:40;5.40;99.90
13684;DHT22;6914;53.552;9.908;2023-04-25T03:48:07;5.30;99.90
13684;DHT22;6914;53.552;9.908;2023-04-25T03:50:34;5.40;99.90
13684;DHT22;6914;53.552;9.908;2023-04-25T03:53:01;5.60;99.90
13684;DHT22;6914;53.552;9.908;2023-04-25T03:55:30;5.60;99.90
13684;DHT22;6914;53.552;9.908;2023-04-25T03:57:58;5.50;99.90
13684;DHT22;6914;53.552;9.908;2023-04-25T04:00:25;5.60;99.90
13684;DHT22;6914;53.552;9.908;2023-04-25T04:02:52;5.60;99.90
13684;DHT22;6914;53.552;9.908;2023-04-25T04:05:19;5.60;99.90
13684;DHT22;6914;53.552;9.908;2023-04-25T04:07:46;5.50;99.90
13684;DHT22;6914;53.552;9.908;2023-04-25T04:10:13;5.50;99.90
13684;DHT22;6914;53.552;9.908;2023-04-25T04:12:41;5.50;99.90
13684;DHT22;6914;53.552;9.908;2023-04-25T04:15:09;5.00;99.90
13684;DHT22;6914;53.552;9.908;2023-04-25T04:17:37;5.40;99.90
13684;DHT22;6914;53.552;9.908;2023-04-25T04:20:05;5.10;99.90
13684;DHT22;6914;53.552;9.908;2023-04-25T04:22:34;5.60;99.90
13684;DHT22;6914;53.552;9.908;2023-04-25T04:25:02;5.20;99.90
13684;DHT22;6914;53.552;9.908;2023-04-25T04:27:31;5.30;99.90
13684;DHT22;6914;53.552;9.908;2023-04-25T04:30:00;5.30;99.90
13684;DHT22;6914;53.552;9.908;2023-04-25T04:32:29;6.00;99.90
13684;DHT22;6914;53.552;9.908;2023-04-25T04:34:57;5.20;99.90
13684;DHT22;6914;53.552;9.908;2023-04-25T04:37:25;4.60;99.90
13684;DHT22;6914;53.552;9.908;2023-04-25T04:39:52;5.30;99.90
13684;DHT22;6914;53.552;9.908;2023-04-25T04:42:19;4.90;99.90
13684;DHT22;6914;53.552;9.908;2023-04-25T04:44:46;5.30;99.90
13684;DHT22;6914;53.552;9.908;2023-04-25T04:47:14;5.30;99.90
13684;DHT22;6914;53.552;9.908;2023-04-25T04:49:41;5.40;99.90
13684;DHT22;6914;53.552;9.908;2023-04-25T04:52:08;5.50;99.90
13684;DHT22;6914;53.552;9.908;2023-04-25T04:54:35;4.70;99.90
13684;DHT22;6914;53.552;9.908;2023-04-25T04:57:01;5.50;99.90
13684;DHT22;6914;53.552;9.908;2023-04-25T04:59:28;5.60;99.90
13684;DHT22;6914;53.552;9.908;2023-04-25T05:01:57;6.10;99.90
13684;DHT22;6914;53.552;9.908;2023-04-25T05:04:44;5.30;99.90
13684;DHT22;6914;53.552;9.908;2023-04-25T05:07:12;5.20;99.90
13684;DHT22;6914;53.552;9.908;2023-04-25T05:09:40;5.50;99.90
13684;DHT22;6914;53.552;9.908;2023-04-25T05:12:09;5.70;99.90
13684;DHT22;6914;53.552;9.908;2023-04-25T05:14:36;5.80;99.90
13684;DHT22;6914;53.552;9.908;2023-04-25T05:17:02;5.50;99.90
13684;DHT22;6914;53.552;9.908;2023-04-25T05:19:35;5.70;99.90
13684;DHT22;6914;53.552;9.908;2023-04-25T05:22:02;5.50;99.90
13684;DHT22;6914;53.552;9.908;2023-04-25T05:24:29;6.10;99.90
13684;DHT22;6914;53.552;9.908;2023-04-25T05:26:58;5.50;99.90
13684;DHT22;6914;53.552;9.908;2023-04-25T05:29:25;5.40;99.90
13684;DHT22;6914;53.552;9.908;2023-04-25T05:31:52;5.20;99.90
13684;DHT22;6914;53.552;9.908;2023-04-25T05:34:19;5.40;99.90
13684;DHT22;6914;53.552;9.908;2023-04-25T05:36:48;5.60;99.90
13684;DHT22;6914;53.552;9.908;2023-04-25T05:39:15;5.20;99.90
13684;DHT22;6914;53.552;9.908;2023-04-25T05:41:43;5.80;99.90
13684;DHT22;6914;53.552;9.908;2023-04-25T05:44:09;5.70;99.90
13684;DHT22;6914;53.552;9.908;2023-04-25T05:46:37;6.20;99.90
13684;DHT22;6914;53.552;9.908;2023-04-25T05:49:03;5.70;99.90
13684;DHT22;6914;53.552;9.908;2023-04-25T05:51:35;6.20;99.90
13684;DHT22;6914;53.552;9.908;2023-04-25T05:54:27;6.10;99.90
13684;DHT22;6914;53.552;9.908;2023-04-25T05:57:08;5.80;99.90
13684;DHT22;6914;53.552;9.908;2023-04-25T05:59:35;6.00;99.90
13684;DHT22;6914;53.552;9.908;2023-04-25T06:02:02;6.10;99.90
13684;DHT22;6914;53.552;9.908;2023-04-25T06:04:30;5.90;99.90
13684;DHT22;6914;53.552;9.908;2023-04-25T06:06:59;6.00;99.90
13684;DHT22;6914;53.552;9.908;2023-04-25T06:09:28;6.30;99.90
13684;DHT22;6914;53.552;9.908;2023-04-25T06:11:57;6.20;99.90
13684;DHT22;6914;53.552;9.908;2023-04-25T06:14:24;6.20;99.90
13684;DHT22;6914;53.552;9.908;2023-04-25T06:16:51;6.40;99.90
13684;DHT22;6914;53.552;9.908;2023-04-25T06:19:19;6.30;99.90
13684;DHT22;6914;53.552;9.908;2023-04-25T06:22:12;6.30;99.90
13684;DHT22;6914;53.552;9.908;2023-04-25T06:24:40;6.20;99.90
13684;DHT22;6914;53.552;9.908;2023-04-25T06:27:07;6.30;99.90
13684;DHT22;6914;53.552;9.908;2023-04-25T06:29:35;6.10;99.90
13684;DHT22;6914;53.552;9.908;2023-04-25T06:32:02;5.90;99.90
13684;DHT22;6914;53.552;9.908;2023-04-25T06:34:37;4.70;99.90
13684;DHT22;6914;53.552;9.908;2023-04-25T06:37:08;5.70;99.90
13684;DHT22;6914;53.552;9.908;2023-04-25T06:39:35;6.00;99.90
13684;DHT22;6914;53.552;9.908;2023-04-25T06:42:05;6.10;99.90
13684;DHT22;6914;53.552;9.908;2023-04-25T06:44:34;6.30;99.90
13684;DHT22;6914;53.552;9.908;2023-04-25T06:47:01;6.40;99.90
13684;DHT22;6914;53.552;9.908;2023-04-25T06:49:34;6.50;99.90
13684;DHT22;6914;53.552;9.908;2023-04-25T06:52:09;8.10;99.90
13684;DHT22;6914;53.552;9.908;2023-04-25T06:54:36;6.80;99.90
13684;DHT22;6914;53.552;9.908;2023-04-25T06:57:16;6.90;99.90
13684;DHT22;6914;53.552;9.908;2023-04-25T07:00:04;6.70;99.90
13684;DHT22;6914;53.552;9.908;2023-04-25T07:02:41;7.10;99.90
13684;DHT22;6914;53.552;9.908;2023-04-25T07:05:09;7.10;99.90
13684;DHT22;6914;53.552;9.908;2023-04-25T07:07:36;7.00;99.90
13684;DHT22;6914;53.552;9.908;2023-04-25T07:12:56;7.00;99.90
13684;DHT22;6914;53.552;9.908;2023-04-25T07:15:23;7.20;99.90
13684;DHT22;6914;53.552;9.908;2023-04-25T07:17:56;6.30;99.90
13684;DHT22;6914;53.552;9.908;2023-04-25T07:20:26;7.40;99.90
13684;DHT22;6914;53.552;9.908;2023-04-25T07:22:58;7.40;99.90
13684;DHT22;6914;53.552;9.908;2023-04-25T07:25:38;7.40;99.90
13684;DHT22;6914;53.552;9.908;2023-04-25T07:28:07;7.40;99.90
13684;DHT22;6914;53.552;9.908;2023-04-25T07:30:35;6.90;99.90
13684;DHT22;6914;53.552;9.908;2023-04-25T07:33:02;7.30;99.90
13684;DHT22;6914;53.552;9.908;2023-04-25T07:38:45;7.30;99.90
13684;DHT22;6914;53.552;9.908;2023-04-25T07:43:42;7.90;99.90
13684;DHT22;6914;53.552;9.908;2023-04-25T07:46:09;7.30;99.90
13684;DHT22;6914;53.552;9.908;2023-04-25T07:48:36;7.80;99.90
13684;DHT22;6914;53.552;9.908;2023-04-25T07:51:03;8.00;99.90
13684;DHT22;6914;53.552;9.908;2023-04-25T07:53:35;8.10;99.90
13684;DHT22;6914;53.552;9.908;2023-04-25T07:56:03;8.10;99.90
13684;DHT22;6914;53.552;9.908;2023-04-25T07:58:31;8.50;99.90
13684;DHT22;6914;53.552;9.908;2023-04-25T08:01:03;8.60;99.90
13684;DHT22;6914;53.552;9.908;2023-04-25T08:03:30;8.60;99.90
13684;DHT22;6914;53.552;9.908;2023-04-25T08:06:03;8.50;99.90
13684;DHT22;6914;53.552;9.908;2023-04-25T08:08:34;8.80;99.90
13684;DHT22;6914;53.552;9.908;2023-04-25T08:11:01;8.90;99.90
13684;DHT22;6914;53.552;9.908;2023-04-25T08:13:28;8.90;99.90
13684;DHT22;6914;53.552;9.908;2023-04-25T08:15:56;10.10;99.90
13684;DHT22;6914;53.552;9.908;2023-04-25T08:18:28;8.90;99.90
13684;DHT22;6914;53.552;9.908;2023-04-25T08:20:57;8.90;99.90
13684;DHT22;6914;53.552;9.908;2023-04-25T08:23:25;8.80;99.90
13684;DHT22;6914;53.552;9.908;2023-04-25T08:25:52;9.00;99.90
13684;DHT22;6914;53.552;9.908;2023-04-25T08:28:19;8.60;99.90
13684;DHT22;6914;53.552;9.908;2023-04-25T08:30:46;8.50;99.90
13684;DHT22;6914;53.552;9.908;2023-04-25T08:33:13;8.50;99.90
13684;DHT22;6914;53.552;9.908;2023-04-25T08:35:43;8.70;99.90
13684;DHT22;6914;53.552;9.908;2023-04-25T08:38:14;8.70;99.90
13684;DHT22;6914;53.552;9.908;2023-04-25T08:40:42;9.10;99.90
13684;DHT22;6914;53.552;9.908;2023-04-25T08:43:13;9.50;99.90
13684;DHT22;6914;53.552;9.908;2023-04-25T08:45:41;9.40;99.90
13684;DHT22;6914;53.552;9.908;2023-04-25T08:48:12;9.30;99.90
13684;DHT22;6914;53.552;9.908;2023-04-25T08:50:50;9.10;99.90
13684;DHT22;6914;53.552;9.908;2023-04-25T08:53:22;9.00;99.90
13684;DHT22;6914;53.552;9.908;2023-04-25T08:55:50;8.60;99.90
13684;DHT22;6914;53.552;9.908;2023-04-25T08:58:19;8.20;99.90
13684;DHT22;6914;53.552;9.908;2023-04-25T09:00:48;8.30;99.90
13684;DHT22;6914;53.552;9.908;2023-04-25T09:03:15;8.10;99.90
13684;DHT22;6914;53.552;9.908;2023-04-25T09:05:43;7.90;99.90
13684;DHT22;6914;53.552;9.908;2023-04-25T09:08:12;8.00;99.90
13684;DHT22;6914;53.552;9.908;2023-04-25T09:10:39;8.30;99.90
13684;DHT22;6914;53.552;9.908;2023-04-25T09:13:08;7.10;99.90
13684;DHT22;6914;53.552;9.908;2023-04-25T09:15:47;7.60;99.90
13684;DHT22;6914;53.552;9.908;2023-04-25T09:18:22;8.00;99.90
13684;DHT22;6914;53.552;9.908;2023-04-25T09:20:51;7.50;99.90
13684;DHT22;6914;53.552;9.908;2023-04-25T09:23:21;7.40;99.90
13684;DHT22;6914;53.552;9.908;2023-04-25T09:25:50;8.10;99.90
13684;DHT22;6914;53.552;9.908;2023-04-25T09:28:23;8.20;99.90
13684;DHT22;6914;53.552;9.908;2023-04-25T09:30:55;8.70;99.90
13684;DHT22;6914;53.552;9.908;2023-04-25T09:33:27;9.50;99.90
13684;DHT22;6914;53.552;9.908;2023-04-25T09:36:07;10.20;99.90
13684;DHT22;6914;53.552;9.908;2023-04-25T09:38:42;10.50;99.90
13684;DHT22;6914;53.552;9.908;2023-04-25T09:41:09;10.10;99.90
13684;DHT22;6914;53.552;9.908;2023-04-25T09:43:38;8.50;99.90
13684;DHT22;6914;53.552;9.908;2023-04-25T09:46:09;8.50;99.90
13684;DHT22;6914;53.552;9.908;2023-04-25T09:48:38;8.40;99.90
13684;DHT22;6914;53.552;9.908;2023-04-25T09:51:07;8.90;99.90
13684;DHT22;6914;53.552;9.908;2023-04-25T09:53:41;8.70;99.90
13684;DHT22;6914;53.552;9.908;2023-04-25T09:56:10;8.60;99.90
13684;DHT22;6914;53.552;9.908;2023-04-25T09:58:39;8.70;99.90
13684;DHT22;6914;53.552;9.908;2023-04-25T10:01:08;8.90;99.90
13684;DHT22;6914;53.552;9.908;2023-04-25T10:03:39;9.20;99.90
13684;DHT22;6914;53.552;9.908;2023-04-25T10:06:09;9.80;99.90
13684;DHT22;6914;53.552;9.908;2023-04-25T10:08:38;10.20;99.90
13684;DHT22;6914;53.552;9.908;2023-04-25T10:11:12;11.20;99.90
13684;DHT22;6914;53.552;9.908;2023-04-25T10:13:46;12.40;99.90
13684;DHT22;6914;53.552;9.908;2023-04-25T10:16:13;12.60;84.20
13684;DHT22;6914;53.552;9.908;2023-04-25T10:18:41;12.00;82.70
13684;DHT22;6914;53.552;9.908;2023-04-25T10:21:08;11.10;91.10
13684;DHT22;6914;53.552;9.908;2023-04-25T10:23:38;10.20;94.60
13684;DHT22;6914;53.552;9.908;2023-04-25T10:26:07;10.60;99.90
13684;DHT22;6914;53.552;9.908;2023-04-25T10:28:57;11.30;95.60
13684;DHT22;6914;53.552;9.908;2023-04-25T10:31:24;12.60;90.10
13684;DHT22;6914;53.552;9.908;2023-04-25T10:33:52;12.90;85.20
13684;DHT22;6914;53.552;9.908;2023-04-25T10:36:21;13.30;80.90
13684;DHT22;6914;53.552;9.908;2023-04-25T10:38:50;12.50;84.20
13684;DHT22;6914;53.552;9.908;2023-04-25T10:41:18;12.10;92.80
13684;DHT22;6914;53.552;9.908;2023-04-25T10:43:46;12.30;94.80
13684;DHT22;6914;53.552;9.908;2023-04-25T10:46:21;12.80;94.40
13684;DHT22;6914;53.552;9.908;2023-04-25T10:48:50;12.90;83.10
13684;DHT22;6914;53.552;9.908;2023-04-25T10:51:19;12.30;86.40
13684;DHT22;6914;53.552;9.908;2023-04-25T10:54:00;11.90;82.30
13684;DHT22;6914;53.552;9.908;2023-04-25T10:56:36;12.30;81.70
13684;DHT22;6914;53.552;9.908;2023-04-25T10:59:07;11.80;86.70
13684;DHT22;6914;53.552;9.908;2023-04-25T11:01:41;11.70;99.90
13684;DHT22;6914;53.552;9.908;2023-04-25T11:04:22;11.00;99.90
13684;DHT22;6914;53.552;9.908;2023-04-25T11:07:03;10.90;99.90
13684;DHT22;6914;53.552;9.908;2023-04-25T11:09:33;10.80;99.90
13684;DHT22;6914;53.552;9.908;2023-04-25T11:12:01;10.80;99.90
13684;DHT22;6914;53.552;9.908;2023-04-25T11:14:28;11.40;99.90
13684;DHT22;6914;53.552;9.908;2023-04-25T11:16:57;12.60;91.90
13684;DHT22;6914;53.552;9.908;2023-04-25T11:19:25;13.50;81.40
13684;DHT22;6914;53.552;9.908;2023-04-25T11:22:02;14.50;80.50
13684;DHT22;6914;53.552;9.908;2023-04-25T11:24:31;14.70;75.40
13684;DHT22;6914;53.552;9.908;2023-04-25T11:29:40;14.90;73.40
13684;DHT22;6914;53.552;9.908;2023-04-25T11:32:12;14.30;73.00
13684;DHT22;6914;53.552;9.908;2023-04-25T11:34:47;13.10;76.00
13684;DHT22;6914;53.552;9.908;2023-04-25T11:37:17;10.30;85.50
13684;DHT22;6914;53.552;9.908;2023-04-25T11:43:09;9.00;99.90
13684;DHT22;6914;53.552;9.908;2023-04-25T11:45:39;9.10;99.90
13684;DHT22;6914;53.552;9.908;2023-04-25T11:48:08;8.80;99.90
13684;DHT22;6914;53.552;9.908;2023-04-25T11:51:04;8.80;99.90
13684;DHT22;6914;53.552;9.908;2023-04-25T11:53:30;9.10;99.90
13684;DHT22;6914;53.552;9.908;2023-04-25T11:55:57;9.20;99.90
13684;DHT22;6914;53.552;9.908;2023-04-25T11:58:54;9.40;99.90
13684;DHT22;6914;53.552;9.908;2023-04-25T12:01:29;10.30;99.90
13684;DHT22;6914;53.552;9.908;2023-04-25T12:04:11;11.50;99.90
13684;DHT22;6914;53.552;9.908;2023-04-25T12:06:43;12.50;99.90
13684;DHT22;6914;53.552;9.908;2023-04-25T12:09:17;12.90;99.20
13684;DHT22;6914;53.552;9.908;2023-04-25T12:11:54;13.80;90.40
13684;DHT22;6914;53.552;9.908;2023-04-25T12:14:25;14.50;84.10
13684;DHT22;6914;53.552;9.908;2023-04-25T12:16:58;14.80;74.90
13684;DHT22;6914;53.552;9.908;2023-04-25T12:19:37;14.90;73.00
13684;DHT22;6914;53.552;9.908;2023-04-25T12:22:20;15.00;70.60
13684;DHT22;6914;53.552;9.908;2023-04-25T12:24:47;13.90;66.20
13684;DHT22;6914;53.552;9.908;2023-04-25T12:27:15;13.80;67.20
13684;DHT22;6914;53.552;9.908;2023-04-25T12:29:51;12.90;68.30
13684;DHT22;6914;53.552;9.908;2023-04-25T12:32:19;11.90;69.70
13684;DHT22;6914;53.552;9.908;2023-04-25T12:34:47;9.30;70.60
13684;DHT22;6914;53.552;9.908;2023-04-25T12:37:15;11.00;74.60
13684;DHT22;6914;53.552;9.908;2023-04-25T12:39:42;11.30;77.30
13684;DHT22;6914;53.552;9.908;2023-04-25T12:42:11;12.00;74.10
13684;DHT22;6914;53.552;9.908;2023-04-25T12:44:39;12.80;75.00
13684;DHT22;6914;53.552;9.908;2023-04-25T12:47:06;13.80;73.50
13684;DHT22;6914;53.552;9.908;2023-04-25T12:49:33;14.40;70.30
13684;DHT22;6914;53.552;9.908;2023-04-25T12:52:05;13.80;67.50
13684;DHT22;6914;53.552;9.908;2023-04-25T12:54:32;12.90;71.80
13684;DHT22;6914;53.552;9.908;2023-04-25T12:57:00;12.00;75.50
13684;DHT22;6914;53.552;9.908;2023-04-25T12:59:28;11.30;93.50
13684;DHT22;6914;53.552;9.908;2023-04-25T13:01:56;11.00;99.90
13684;DHT22;6914;53.552;9.908;2023-04-25T13:04:23;11.30;99.90
13684;DHT22;6914;53.552;9.908;2023-04-25T13:06:50;12.80;99.90
13684;DHT22;6914;53.552;9.908;2023-04-25T13:09:19;11.70;92.40
13684;DHT22;6914;53.552;9.908;2023-04-25T13:11:46;11.60;85.50
13684;DHT22;6914;53.552;9.908;2023-04-25T13:14:12;9.70;84.40
13684;DHT22;6914;53.552;9.908;2023-04-25T13:16:45;11.00;99.10
13684;DHT22;6914;53.552;9.908;2023-04-25T13:19:13;9.80;99.90
13684;DHT22;6914;53.552;9.908;2023-04-25T13:21:41;9.10;99.90
13684;DHT22;6914;53.552;9.908;2023-04-25T13:24:11;8.50;99.90
13684;DHT22;6914;53.552;9.908;2023-04-25T13:26:41;8.30;99.90
13684;DHT22;6914;53.552;9.908;2023-04-25T13:29:08;8.50;99.90
13684;DHT22;6914;53.552;9.908;2023-04-25T13:31:35;8.60;99.90
13684;DHT22;6914;53.552;9.908;2023-04-25T13:34:02;8.90;99.90
13684;DHT22;6914;53.552;9.908;2023-04-25T13:36:30;9.10;99.90
13684;DHT22;6914;53.552;9.908;2023-04-25T13:38:57;8.20;99.90
13684;DHT22;6914;53.552;9.908;2023-04-25T13:41:24;9.50;99.90
13684;DHT22;6914;53.552;9.908;2023-04-25T13:43:57;9.70;99.90
13684;DHT22;6914;53.552;9.908;2023-04-25T13:46:27;9.60;99.90
13684;DHT22;6914;53.552;9.908;2023-04-25T13:48:57;9.80;99.90
13684;DHT22;6914;53.552;9.908;2023-04-25T13:51:27;8.60;99.90
13684;DHT22;6914;53.552;9.908;2023-04-25T13:53:54;8.00;99.90
13684;DHT22;6914;53.552;9.908;2023-04-25T13:56:21;7.70;99.90
13684;DHT22;6914;53.552;9.908;2023-04-25T13:58:48;7.20;99.90
13684;DHT22;6914;53.552;9.908;2023-04-25T14:01:18;6.90;99.90
13684;DHT22;6914;53.552;9.908;2023-04-25T14:03:46;6.80;99.90
13684;DHT22;6914;53.552;9.908;2023-04-25T14:06:15;6.90;99.90
13684;DHT22;6914;53.552;9.908;2023-04-25T14:08:48;7.10;99.90
13684;DHT22;6914;53.552;9.908;2023-04-25T14:11:14;6.80;99.90
13684;DHT22;6914;53.552;9.908;2023-04-25T14:13:43;9.30;99.90
13684;DHT22;6914;53.552;9.908;2023-04-25T14:16:10;8.40;99.90
13684;DHT22;6914;53.552;9.908;2023-04-25T14:18:41;8.70;99.90
13684;DHT22;6914;53.552;9.908;2023-04-25T14:21:17;8.90;99.90
13684;DHT22;6914;53.552;9.908;2023-04-25T14:23:46;9.10;99.90
13684;DHT22;6914;53.552;9.908;2023-04-25T14:26:25;9.10;99.90
13684;DHT22;6914;53.552;9.908;2023-04-25T14:28:56;9.10;99.90
13684;DHT22;6914;53.552;9.908;2023-04-25T14:31:23;8.90;99.90
13684;DHT22;6914;53.552;9.908;2023-04-25T14:33:53;8.20;99.90
13684;DHT22;6914;53.552;9.908;2023-04-25T14:36:21;9.00;99.90
13684;DHT22;6914;53.552;9.908;2023-04-25T14:38:50;9.60;99.90
13684;DHT22;6914;53.552;9.908;2023-04-25T14:41:17;10.00;99.90
13684;DHT22;6914;53.552;9.908;2023-04-25T14:43:44;9.50;99.90
13684;DHT22;6914;53.552;9.908;2023-04-25T14:46:11;9.00;99.90
13684;DHT22;6914;53.552;9.908;2023-04-25T14:48:40;9.60;99.90
13684;DHT22;6914;53.552;9.908;2023-04-25T14:51:09;10.00;99.90
13684;DHT22;6914;53.552;9.908;2023-04-25T14:53:41;9.80;99.90
13684;DHT22;6914;53.552;9.908;2023-04-25T14:56:17;9.80;99.90
13684;DHT22;6914;53.552;9.908;2023-04-25T15:01:46;9.80;99.90
13684;DHT22;6914;53.552;9.908;2023-04-25T15:04:19;9.50;99.90
13684;DHT22;6914;53.552;9.908;2023-04-25T15:06:49;9.80;99.90
13684;DHT22;6914;53.552;9.908;2023-04-25T15:09:23;9.90;99.90
13684;DHT22;6914;53.552;9.908;2023-04-25T15:12:01;8.90;99.90
13684;DHT22;6914;53.552;9.908;2023-04-25T15:14:48;8.40;99.90
13684;DHT22;6914;53.552;9.908;2023-04-25T15:17:18;8.10;99.90
13684;DHT22;6914;53.552;9.908;2023-04-25T15:19:48;8.10;99.90
13684;DHT22;6914;53.552;9.908;2023-04-25T15:22:57;8.30;99.90
13684;DHT22;6914;53.552;9.908;2023-04-25T15:25:40;9.00;99.90
13684;DHT22;6914;53.552;9.908;2023-04-25T15:28:11;8.60;99.90
13684;DHT22;6914;53.552;9.908;2023-04-25T15:30:47;8.80;99.90
13684;DHT22;6914;53.552;9.908;2023-04-25T15:33:19;8.80;99.90
13684;DHT22;6914;53.552;9.908;2023-04-25T15:35:59;8.80;99.90
13684;DHT22;6914;53.552;9.908;2023-04-25T15:38:48;8.90;99.90
13684;DHT22;6914;53.552;9.908;2023-04-25T15:41:23;8.60;99.90
13684;DHT22;6914;53.552;9.908;2023-04-25T15:43:52;8.60;99.90
13684;DHT22;6914;53.552;9.908;2023-04-25T15:46:19;8.70;99.90
13684;DHT22;6914;53.552;9.908;2023-04-25T15:48:48;8.80;99.90
13684;DHT22;6914;53.552;9.908;2023-04-25T15:51:21;9.00;99.90
13684;DHT22;6914;53.552;9.908;2023-04-25T15:53:52;9.20;99.90
13684;DHT22;6914;53.552;9.908;2023-04-25T15:56:20;8.90;99.90
13684;DHT22;6914;53.552;9.908;2023-04-25T15:58:48;8.80;99.90
13684;DHT22;6914;53.552;9.908;2023-04-25T16:01:31;8.80;99.90
13684;DHT22;6914;53.552;9.908;2023-04-25T16:04:25;8.60;99.90
13684;DHT22;6914;53.552;9.908;2023-04-25T16:07:00;8.50;99.90
13684;DHT22;6914;53.552;9.908;2023-04-25T16:09:29;8.60;99.90
13684;DHT22;6914;53.552;9.908;2023-04-25T16:11:56;8.70;99.90
13684;DHT22;6914;53.552;9.908;2023-04-25T16:14:23;9.10;99.90
13684;DHT22;6914;53.552;9.908;2023-04-25T16:17:21;8.80;99.90
13684;DHT22;6914;53.552;9.908;2023-04-25T16:20:22;8.80;99.90
13684;DHT22;6914;53.552;9.908;2023-04-25T16:22:53;8.70;99.90
13684;DHT22;6914;53.552;9.908;2023-04-25T16:25:23;8.10;99.90
13684;DHT22;6914;53.552;9.908;2023-04-25T16:27:49;8.10;99.90
13684;DHT22;6914;53.552;9.908;2023-04-25T16:30:18;8.10;99.90
13684;DHT22;6914;53.552;9.908;2023-04-25T16:32:49;8.10;99.90
13684;DHT22;6914;53.552;9.908;2023-04-25T16:35:17;8.00;99.90